Metar z połowy godziny Komunikat METAR ze strony awiacja.imgw.pl Metar G00 EPLB METAR EPLB 062330Z 20006KT 4500 -SNRA BR BKN003 01/01 Q1010 =